Time;durP1;ratioP1;P1;durP2;ratioP2;P2;SDS_P1;SDS_P2;PMS_P1;PMS_P2;Temp;Humidity;BMP_temperature;BMP_pressure;BME280_temperature;BME280_humidity;BME280_pressure;Samples;Min_cycle;Max_cycle;Signal;HPM_P1;HPM_P2
2023/05/11 00:02:12;;;;;;;6.20;2.30;;;15.00;73.20;;;;;;5064841;28;21061;-66
2023/05/11 00:04:45;;;;;;;8.07;2.40;;;15.00;73.30;;;;;;5062468;28;20463;-67
2023/05/11 00:07:17;;;;;;;4.47;2.50;;;15.00;73.30;;;;;;5065352;28;20810;-66
2023/05/11 00:09:56;;;;;;;8.43;2.20;;;15.00;73.20;;;;;;5063949;28;21210;-66
2023/05/11 00:12:30;;;;;;;11.67;2.73;;;14.90;73.20;;;;;;5066316;28;21021;-66
2023/05/11 00:15:07;;;;;;;7.17;2.30;;;14.90;73.30;;;;;;5064390;28;20537;-66
2023/05/11 00:17:39;;;;;;;5.80;2.27;;;14.90;73.30;;;;;;5056615;28;20504;-66
2023/05/11 00:20:12;;;;;;;5.30;2.17;;;14.90;73.30;;;;;;5068110;28;20465;-66
2023/05/11 00:22:54;;;;;;;6.20;2.20;;;14.90;73.40;;;;;;5066313;28;20480;-66
2023/05/11 00:25:27;;;;;;;4.53;2.10;;;14.80;73.40;;;;;;5063748;28;20534;-67
2023/05/11 00:28:00;;;;;;;7.57;2.03;;;14.80;73.40;;;;;;5062140;28;20531;-66
2023/05/11 00:30:34;;;;;;;7.27;2.40;;;14.80;73.50;;;;;;5064949;28;20781;-66
2023/05/11 00:33:19;;;;;;;5.80;2.00;;;14.80;73.50;;;;;;5060619;28;20460;-66
2023/05/11 00:35:54;;;;;;;6.57;2.00;;;14.80;73.50;;;;;;5065610;28;20509;-66
2023/05/11 00:38:29;;;;;;;6.17;2.03;;;14.80;73.50;;;;;;5074515;28;20465;-66
2023/05/11 00:41:01;;;;;;;5.73;2.53;;;14.80;73.50;;;;;;5063033;28;20536;-66
2023/05/11 00:43:38;;;;;;;7.80;2.10;;;14.80;73.60;;;;;;5060958;28;20542;-66
2023/05/11 00:46:16;;;;;;;4.90;1.90;;;14.80;73.60;;;;;;5059842;28;20463;-66
2023/05/11 00:48:49;;;;;;;5.20;1.97;;;14.80;73.70;;;;;;5068843;28;20466;-66
2023/05/11 00:51:30;;;;;;;7.00;2.07;;;14.80;73.70;;;;;;5067545;28;20538;-67
2023/05/11 00:56:59;;;;;;;16.00;2.50;;;14.80;73.70;;;;;;5063280;28;20539;-66
2023/05/11 00:59:30;;;;;;;4.77;1.83;;;14.70;73.70;;;;;;5066308;28;20475;-67
2023/05/11 01:02:11;;;;;;;6.60;2.10;;;14.70;73.70;;;;;;5063835;28;20477;-66
2023/05/11 01:04:52;;;;;;;4.37;1.83;;;14.70;73.70;;;;;;5067380;28;20524;-66
2023/05/11 01:07:34;;;;;;;6.37;2.00;;;14.70;73.70;;;;;;5068700;28;20988;-66
2023/05/11 01:10:20;;;;;;;6.83;1.97;;;14.70;73.70;;;;;;5066623;28;20461;-67
2023/05/11 01:13:12;;;;;;;5.30;2.17;;;14.60;73.70;;;;;;5065234;28;20466;-66
2023/05/11 01:15:55;;;;;;;5.67;2.37;;;14.60;73.80;;;;;;5064099;28;20470;-66
2023/05/11 01:18:38;;;;;;;5.87;2.70;;;14.60;73.80;;;;;;5069293;28;20465;-67
2023/05/11 01:21:22;;;;;;;6.30;2.60;;;14.60;73.90;;;;;;5070722;28;20560;-66
2023/05/11 01:24:32;;;;;;;6.40;2.17;;;14.50;74.00;;;;;;5067525;28;20458;-66
2023/05/11 01:27:43;;;;;;;16.33;2.60;;;14.60;74.00;;;;;;5062345;28;20473;-66
2023/05/11 01:30:40;;;;;;;9.27;2.90;;;14.50;74.10;;;;;;5012653;28;20539;-67
2023/05/11 01:33:15;;;;;;;8.70;2.70;;;14.50;74.10;;;;;;4994530;28;20457;-67
2023/05/11 01:36:02;;;;;;;4.77;2.17;;;14.50;74.20;;;;;;5069473;28;20470;-67
2023/05/11 01:38:40;;;;;;;6.63;2.70;;;14.50;74.20;;;;;;5070431;28;20454;-67
2023/05/11 01:41:17;;;;;;;7.13;2.60;;;14.50;74.20;;;;;;5066181;28;20453;-67
2023/05/11 01:43:58;;;;;;;8.20;2.80;;;14.50;74.30;;;;;;5066720;28;20554;-67
2023/05/11 01:46:34;;;;;;;7.63;2.50;;;14.50;74.30;;;;;;5070807;28;20969;-67
2023/05/11 01:49:15;;;;;;;4.60;2.37;;;14.50;74.30;;;;;;5070221;28;20524;-66
2023/05/11 01:51:50;;;;;;;5.63;2.70;;;14.50;74.40;;;;;;5066358;28;20470;-67
2023/05/11 01:54:25;;;;;;;4.60;2.30;;;14.50;74.30;;;;;;5065340;28;20469;-68
2023/05/11 01:57:04;;;;;;;7.40;2.17;;;14.50;74.30;;;;;;5067244;28;20480;-67
2023/05/11 01:59:35;;;;;;;5.73;2.17;;;14.50;74.40;;;;;;5065320;28;20462;-67
2023/05/11 02:02:23;;;;;;;5.73;1.73;;;14.50;74.40;;;;;;5052612;28;20478;-68
2023/05/11 02:05:04;;;;;;;4.83;1.80;;;14.50;74.40;;;;;;5068332;28;20908;-67
2023/05/11 02:07:47;;;;;;;8.27;2.10;;;14.50;74.50;;;;;;5067085;28;20472;-68
2023/05/11 02:10:22;;;;;;;7.20;1.90;;;14.50;74.50;;;;;;5068946;28;20446;-67
2023/05/11 02:12:56;;;;;;;3.80;1.87;;;14.50;74.50;;;;;;5061620;28;20482;-67
2023/05/11 02:15:35;;;;;;;6.87;2.30;;;14.50;74.60;;;;;;5068108;28;20442;-67
2023/05/11 02:18:16;;;;;;;4.00;1.67;;;14.50;74.60;;;;;;5066957;28;20484;-67
2023/05/11 02:20:57;;;;;;;5.50;2.03;;;14.50;74.60;;;;;;5066674;28;20458;-67
2023/05/11 02:23:33;;;;;;;4.50;2.07;;;14.40;74.60;;;;;;5068268;28;20836;-67
2023/05/11 02:26:15;;;;;;;8.23;2.10;;;14.40;74.70;;;;;;5065712;28;20571;-67
2023/05/11 02:28:57;;;;;;;6.50;2.20;;;14.50;74.70;;;;;;5068645;28;20468;-67
2023/05/11 02:31:37;;;;;;;4.80;2.00;;;14.50;74.70;;;;;;5067031;28;21040;-67
2023/05/11 02:34:28;;;;;;;5.60;1.70;;;14.50;74.80;;;;;;5069561;28;20465;-67
2023/05/11 02:37:09;;;;;;;5.70;2.00;;;14.50;74.80;;;;;;5067658;28;20476;-67
2023/05/11 02:39:46;;;;;;;6.13;2.50;;;14.50;74.80;;;;;;5066527;28;20489;-67
2023/05/11 02:42:24;;;;;;;7.23;2.17;;;14.50;74.80;;;;;;5065403;28;20483;-67
2023/05/11 02:44:58;;;;;;;5.40;2.17;;;14.50;74.80;;;;;;5067295;28;20545;-67
2023/05/11 02:47:47;;;;;;;4.30;2.13;;;14.50;74.80;;;;;;5066689;28;20461;-67
2023/05/11 02:50:29;;;;;;;5.10;2.30;;;14.50;74.80;;;;;;5065422;28;20464;-67
2023/05/11 02:53:07;;;;;;;8.50;2.57;;;14.50;74.70;;;;;;5066951;28;20573;-67
2023/05/11 02:55:49;;;;;;;5.13;2.20;;;14.40;74.70;;;;;;5072995;28;20453;-67
2023/05/11 02:58:30;;;;;;;5.80;2.37;;;14.40;74.80;;;;;;5070152;28;20462;-67
2023/05/11 03:01:22;;;;;;;4.27;2.30;;;14.40;74.80;;;;;;5067413;28;20477;-67
2023/05/11 03:03:58;;;;;;;7.43;2.03;;;14.30;74.90;;;;;;5063238;28;20465;-68
2023/05/11 03:06:46;;;;;;;5.93;2.27;;;14.30;74.90;;;;;;5066982;28;20921;-67
2023/05/11 03:09:20;;;;;;;4.80;2.10;;;14.30;75.00;;;;;;5070444;28;20452;-67
2023/05/11 03:12:01;;;;;;;4.20;1.90;;;14.30;75.00;;;;;;5063762;28;20531;-67
2023/05/11 03:14:40;;;;;;;6.17;2.63;;;14.30;75.00;;;;;;5065449;28;20465;-67
2023/05/11 03:17:14;;;;;;;4.50;2.10;;;14.30;75.00;;;;;;5068198;28;20477;-67
2023/05/11 03:19:44;;;;;;;5.83;2.20;;;14.30;75.00;;;;;;5069675;28;20468;-67
2023/05/11 03:22:25;;;;;;;4.27;2.30;;;14.20;75.00;;;;;;5070063;28;21050;-67
2023/05/11 03:24:57;;;;;;;6.20;2.30;;;14.20;75.10;;;;;;5067602;28;20499;-67
2023/05/11 03:27:31;;;;;;;4.23;2.20;;;14.20;75.10;;;;;;5070291;28;20475;-67
2023/05/11 03:30:08;;;;;;;5.67;2.93;;;14.20;75.00;;;;;;5069862;28;20452;-67
2023/05/11 03:32:44;;;;;;;8.40;2.13;;;14.20;75.10;;;;;;5064088;28;20578;-67
2023/05/11 03:35:15;;;;;;;5.60;2.43;;;14.20;75.10;;;;;;5064610;28;20483;-67
2023/05/11 03:38:01;;;;;;;5.47;1.90;;;14.20;75.10;;;;;;5063977;28;20461;-67
2023/05/11 03:40:45;;;;;;;7.37;2.57;;;14.20;75.20;;;;;;5068597;28;20453;-67
2023/05/11 03:43:25;;;;;;;5.60;2.10;;;14.20;75.20;;;;;;5068243;28;20448;-67
2023/05/11 03:45:59;;;;;;;3.60;1.57;;;14.20;75.30;;;;;;5067702;28;20592;-67
2023/05/11 03:48:38;;;;;;;6.10;2.30;;;14.20;75.30;;;;;;5066737;28;20832;-68
2023/05/11 03:51:09;;;;;;;5.37;1.90;;;14.20;75.40;;;;;;5066546;28;20586;-67
2023/05/11 03:53:49;;;;;;;6.67;2.17;;;14.20;75.40;;;;;;5069726;28;20575;-67
2023/05/11 03:56:26;;;;;;;5.13;2.00;;;14.20;75.30;;;;;;5064416;28;20486;-67
2023/05/11 03:59:01;;;;;;;5.77;1.93;;;14.10;75.30;;;;;;5071609;28;20478;-67
2023/05/11 04:01:39;;;;;;;10.50;2.00;;;14.10;75.40;;;;;;5066152;28;20978;-67
2023/05/11 04:06:58;;;;;;;6.70;2.50;;;14.10;75.60;;;;;;5068562;28;20465;-67
2023/05/11 04:09:38;;;;;;;7.33;2.57;;;14.10;75.60;;;;;;5063126;28;21019;-67
2023/05/11 04:12:12;;;;;;;11.00;2.80;;;14.10;75.70;;;;;;5065085;28;20580;-67
2023/05/11 04:14:44;;;;;;;5.73;2.23;;;14.10;75.70;;;;;;5064780;28;20714;-67
2023/05/11 04:17:17;;;;;;;4.97;2.17;;;14.10;75.80;;;;;;5064065;28;20465;-67
2023/05/11 04:19:56;;;;;;;5.07;1.70;;;14.10;75.80;;;;;;5068386;28;20461;-67
2023/05/11 04:22:28;;;;;;;7.10;2.53;;;14.10;75.80;;;;;;5062596;28;20533;-67
2023/05/11 04:25:07;;;;;;;5.30;1.77;;;14.10;75.80;;;;;;5065380;28;20567;-67
2023/05/11 04:27:42;;;;;;;6.10;1.73;;;14.20;75.90;;;;;;5063912;28;20457;-67
2023/05/11 04:30:11;;;;;;;4.00;1.80;;;14.10;75.90;;;;;;5064369;28;20461;-68
2023/05/11 04:32:49;;;;;;;4.60;2.27;;;14.20;76.00;;;;;;5059550;28;20478;-67
2023/05/11 04:35:24;;;;;;;5.30;2.23;;;14.20;76.10;;;;;;5061746;28;21024;-68
2023/05/11 04:38:00;;;;;;;4.23;2.10;;;14.20;76.10;;;;;;5065492;28;21340;-68
2023/05/11 04:40:41;;;;;;;4.83;1.70;;;14.20;76.20;;;;;;5069479;28;20460;-67
2023/05/11 04:43:25;;;;;;;8.87;2.30;;;14.30;76.20;;;;;;5080964;28;20465;-67
2023/05/11 04:45:55;;;;;;;7.23;2.37;;;14.30;76.20;;;;;;5067838;28;20458;-67
2023/05/11 04:48:35;;;;;;;7.53;2.20;;;14.30;76.10;;;;;;5082474;28;20465;-67
2023/05/11 04:51:11;;;;;;;4.50;2.00;;;14.30;76.10;;;;;;5067904;28;20463;-67
2023/05/11 04:53:48;;;;;;;5.80;2.00;;;14.30;76.20;;;;;;5067419;28;20492;-67
2023/05/11 04:56:31;;;;;;;6.37;2.07;;;14.30;76.30;;;;;;5069987;28;20451;-67
2023/05/11 04:59:08;;;;;;;4.33;1.90;;;14.30;76.30;;;;;;5069020;28;20470;-67
2023/05/11 05:01:43;;;;;;;6.10;2.30;;;14.30;76.40;;;;;;5065891;28;20489;-67
2023/05/11 05:04:17;;;;;;;5.30;2.33;;;14.30;76.30;;;;;;5069910;28;20499;-68
2023/05/11 05:06:53;;;;;;;4.87;2.13;;;14.40;76.30;;;;;;5069426;28;20497;-67
2023/05/11 05:09:25;;;;;;;5.83;2.30;;;14.40;76.40;;;;;;5066133;28;20562;-69
2023/05/11 05:12:09;;;;;;;5.93;2.00;;;14.40;76.50;;;;;;5065656;28;21009;-67
2023/05/11 05:14:41;;;;;;;4.70;2.13;;;14.40;76.50;;;;;;5069714;28;20878;-66
2023/05/11 05:17:12;;;;;;;5.17;2.30;;;14.50;76.50;;;;;;5068686;28;20469;-67
2023/05/11 05:19:44;;;;;;;8.50;2.03;;;14.50;76.60;;;;;;5064019;28;20463;-67
2023/05/11 05:22:16;;;;;;;4.07;1.80;;;14.60;76.70;;;;;;5067552;28;20474;-67
2023/05/11 05:24:47;;;;;;;4.30;2.03;;;14.60;76.70;;;;;;5070792;28;20453;-67
2023/05/11 05:27:33;;;;;;;8.30;2.10;;;14.60;76.80;;;;;;5066416;28;20468;-66
2023/05/11 05:30:11;;;;;;;3.80;2.03;;;14.70;76.90;;;;;;5067495;28;20472;-68
2023/05/11 05:32:43;;;;;;;8.00;2.33;;;14.70;76.80;;;;;;5064150;28;21198;-66
2023/05/11 05:38:03;;;;;;;6.87;1.90;;;14.80;76.90;;;;;;5070375;28;20468;-67
2023/05/11 05:40:36;;;;;;;3.60;1.70;;;14.90;76.90;;;;;;5069380;28;20824;-68
2023/05/11 05:43:15;;;;;;;6.80;2.53;;;14.90;76.90;;;;;;5052124;28;20476;-67
2023/05/11 05:45:49;;;;;;;4.93;2.13;;;14.90;76.90;;;;;;5070577;28;20462;-67
2023/05/11 05:48:22;;;;;;;5.50;1.83;;;14.90;76.90;;;;;;5067976;28;20471;-67
2023/05/11 05:53:44;;;;;;;6.30;1.60;;;14.90;76.80;;;;;;5069010;28;20818;-66
2023/05/11 05:56:25;;;;;;;4.30;1.70;;;14.90;76.80;;;;;;5071037;28;20449;-66
2023/05/11 05:59:13;;;;;;;9.77;1.70;;;15.00;76.80;;;;;;5065293;28;20468;-67
2023/05/11 06:01:48;;;;;;;5.00;2.13;;;15.00;76.70;;;;;;5068689;28;20510;-67
2023/05/11 06:04:19;;;;;;;5.40;2.10;;;14.90;76.70;;;;;;5063580;28;20553;-67
2023/05/11 06:06:52;;;;;;;4.13;1.67;;;14.90;76.70;;;;;;5070014;28;20952;-67
2023/05/11 06:09:36;;;;;;;6.60;2.17;;;14.90;76.70;;;;;;5068729;28;20491;-67
2023/05/11 06:12:08;;;;;;;26.70;18.37;;;14.90;76.80;;;;;;5070093;28;20780;-66
2023/05/11 06:14:55;;;;;;;8.77;4.67;;;15.00;76.80;;;;;;5070305;28;20488;-67
2023/05/11 06:17:28;;;;;;;7.20;3.07;;;15.00;76.70;;;;;;5068940;28;20478;-67
2023/05/11 06:20:07;;;;;;;5.03;2.17;;;15.00;76.70;;;;;;5066639;28;20463;-67
2023/05/11 06:22:47;;;;;;;6.20;1.83;;;15.00;76.70;;;;;;5065847;28;20460;-67
2023/05/11 06:25:22;;;;;;;4.53;1.90;;;15.10;76.70;;;;;;5069796;28;20445;-67
2023/05/11 06:28:00;;;;;;;4.80;1.77;;;15.10;76.60;;;;;;5066474;28;20459;-67
2023/05/11 06:30:44;;;;;;;5.40;1.97;;;15.10;76.60;;;;;;5069432;28;21150;-67
2023/05/11 06:33:17;;;;;;;4.40;1.90;;;15.10;76.60;;;;;;5068847;28;20463;-67
2023/05/11 06:35:54;;;;;;;7.43;1.83;;;15.10;76.60;;;;;;5068558;28;20460;-67
2023/05/11 06:38:31;;;;;;;6.07;1.77;;;15.10;76.60;;;;;;5070206;28;20473;-67
2023/05/11 06:41:10;;;;;;;6.30;2.10;;;15.20;76.60;;;;;;5068159;28;20565;-66
2023/05/11 06:43:42;;;;;;;5.50;1.90;;;15.20;76.50;;;;;;5068874;28;20538;-67
2023/05/11 06:46:26;;;;;;;5.47;1.87;;;15.20;76.50;;;;;;5069612;28;20463;-67
2023/05/11 06:49:04;;;;;;;4.60;1.83;;;15.20;76.40;;;;;;5066764;28;20455;-67
2023/05/11 06:51:39;;;;;;;5.23;2.40;;;15.20;76.40;;;;;;5065030;28;20454;-66
2023/05/11 06:54:12;;;;;;;5.30;2.00;;;15.20;76.50;;;;;;5069341;28;20584;-66
2023/05/11 06:56:46;;;;;;;5.10;2.10;;;15.30;76.40;;;;;;5068626;28;20462;-67
2023/05/11 06:59:19;;;;;;;4.30;1.87;;;15.30;76.40;;;;;;5066820;28;20782;-67
2023/05/11 07:01:54;;;;;;;5.30;1.70;;;15.30;76.40;;;;;;5067084;28;20494;-65
2023/05/11 07:04:28;;;;;;;6.20;2.50;;;15.30;76.40;;;;;;5069313;28;20453;-65
2023/05/11 07:07:03;;;;;;;7.33;3.07;;;15.30;76.20;;;;;;5068443;28;20463;-67
2023/05/11 07:09:44;;;;;;;5.20;1.90;;;15.30;76.20;;;;;;5066335;28;20442;-66
2023/05/11 07:12:17;;;;;;;4.20;2.00;;;15.40;76.20;;;;;;5069254;28;20893;-66
2023/05/11 07:14:50;;;;;;;5.33;1.93;;;15.40;76.10;;;;;;5063679;28;20502;-66
2023/05/11 07:17:30;;;;;;;5.10;1.90;;;15.40;76.10;;;;;;5068639;28;20481;-66
2023/05/11 07:20:04;;;;;;;5.63;2.20;;;15.40;76.10;;;;;;5065790;28;20537;-66
2023/05/11 07:22:36;;;;;;;4.20;1.63;;;15.40;76.10;;;;;;5066448;28;20513;-66
2023/05/11 07:25:09;;;;;;;4.47;1.83;;;15.40;76.10;;;;;;5069235;28;20493;-66
2023/05/11 07:27:48;;;;;;;4.40;1.90;;;15.40;76.10;;;;;;5066686;28;20467;-66
2023/05/11 07:30:24;;;;;;;4.50;1.90;;;15.50;76.10;;;;;;5068004;28;20459;-66
2023/05/11 07:33:01;;;;;;;6.70;1.73;;;15.50;76.10;;;;;;5065148;28;20500;-66
2023/05/11 07:35:35;;;;;;;6.37;1.80;;;15.50;76.00;;;;;;5068544;28;20493;-66
2023/05/11 07:38:08;;;;;;;5.50;2.00;;;15.50;75.90;;;;;;5067082;28;20465;-66
2023/05/11 07:40:41;;;;;;;5.60;2.27;;;15.50;75.90;;;;;;5066120;28;20480;-66
2023/05/11 07:43:21;;;;;;;9.30;2.87;;;15.50;75.90;;;;;;5067523;28;20459;-66
2023/05/11 07:45:59;;;;;;;4.30;2.10;;;15.60;75.80;;;;;;5066372;28;20458;-66
2023/05/11 07:48:38;;;;;;;5.40;2.10;;;15.50;75.80;;;;;;5065429;28;20520;-66
2023/05/11 07:51:10;;;;;;;3.90;1.90;;;15.60;75.90;;;;;;5064382;28;20459;-66
2023/05/11 07:53:39;;;;;;;5.13;2.07;;;15.60;75.90;;;;;;5061754;28;20475;-66
2023/05/11 07:56:20;;;;;;;5.23;2.20;;;15.60;75.80;;;;;;5064753;28;20891;-66
2023/05/11 07:58:54;;;;;;;5.90;1.90;;;15.60;75.80;;;;;;5065394;28;20810;-66
2023/05/11 08:01:29;;;;;;;7.60;2.20;;;15.70;75.80;;;;;;5063790;28;20518;-66
2023/05/11 08:04:06;;;;;;;6.37;1.90;;;15.70;75.70;;;;;;5070938;28;20485;-66
2023/05/11 08:06:49;;;;;;;5.97;2.30;;;15.70;75.70;;;;;;5065889;28;20461;-66
2023/05/11 08:09:31;;;;;;;6.90;2.13;;;15.70;75.80;;;;;;5065852;28;20861;-66
2023/05/11 08:12:03;;;;;;;8.57;2.77;;;15.70;75.80;;;;;;5064596;28;20915;-66
2023/05/11 08:14:36;;;;;;;5.47;2.10;;;15.70;75.80;;;;;;5070743;28;20476;-66
2023/05/11 08:17:10;;;;;;;5.20;2.13;;;15.80;75.90;;;;;;5071581;28;20535;-66
2023/05/11 08:19:50;;;;;;;4.83;1.90;;;15.80;75.90;;;;;;5068389;28;20873;-66
2023/05/11 08:22:25;;;;;;;5.60;2.17;;;15.80;76.00;;;;;;5067804;28;20518;-66
2023/05/11 08:25:05;;;;;;;5.13;2.40;;;15.80;75.90;;;;;;5071193;28;20455;-66
2023/05/11 08:27:45;;;;;;;4.93;2.50;;;15.80;75.80;;;;;;5068779;28;20474;-66
2023/05/11 08:30:16;;;;;;;5.80;2.30;;;15.80;75.90;;;;;;5070329;28;20547;-66
2023/05/11 08:32:55;;;;;;;6.03;2.20;;;15.80;75.90;;;;;;5070957;28;20463;-66
2023/05/11 08:35:43;;;;;;;6.37;2.20;;;15.90;75.90;;;;;;5071412;28;20572;-66
2023/05/11 08:38:23;;;;;;;5.13;2.30;;;15.90;75.90;;;;;;5070167;28;20461;-66
2023/05/11 08:43:51;;;;;;;5.83;2.20;;;15.90;76.10;;;;;;5080166;28;21038;-66
2023/05/11 08:46:28;;;;;;;5.63;2.20;;;15.90;76.30;;;;;;5065595;28;20466;-66
2023/05/11 08:49:08;;;;;;;6.50;2.73;;;16.00;76.30;;;;;;5075558;28;20815;-66
2023/05/11 08:51:48;;;;;;;4.80;2.37;;;16.00;76.30;;;;;;5067644;28;20484;-66
2023/05/11 08:54:22;;;;;;;6.90;2.33;;;16.10;76.30;;;;;;5071519;28;21010;-66
2023/05/11 08:57:00;;;;;;;5.17;2.40;;;16.10;76.30;;;;;;5068839;28;20476;-66
2023/05/11 08:59:34;;;;;;;6.70;2.47;;;16.10;76.20;;;;;;5072360;28;20515;-66
2023/05/11 09:02:13;;;;;;;8.13;2.27;;;16.20;76.30;;;;;;5067467;28;20487;-66
2023/05/11 09:04:49;;;;;;;5.53;2.80;;;16.20;76.30;;;;;;5070926;28;20463;-66
2023/05/11 09:07:29;;;;;;;5.43;2.37;;;16.20;76.30;;;;;;5072333;28;20464;-66
2023/05/11 09:10:11;;;;;;;4.73;2.47;;;16.20;76.40;;;;;;5068704;28;20459;-66
2023/05/11 09:12:41;;;;;;;4.80;2.20;;;16.20;76.40;;;;;;5070012;28;20511;-66
2023/05/11 09:15:20;;;;;;;6.00;2.40;;;16.20;76.50;;;;;;5071843;28;20489;-66
2023/05/11 09:17:53;;;;;;;5.57;2.80;;;16.20;76.40;;;;;;5067058;28;20835;-66
2023/05/11 09:20:30;;;;;;;6.50;3.10;;;16.30;76.50;;;;;;5071748;28;20491;-66
2023/05/11 09:23:03;;;;;;;6.60;2.50;;;16.30;76.50;;;;;;5067348;28;20460;-66
2023/05/11 09:25:34;;;;;;;5.27;2.80;;;16.30;76.60;;;;;;5069193;28;20942;-66
2023/05/11 09:28:12;;;;;;;5.20;2.33;;;16.30;76.60;;;;;;5070286;28;20465;-66
2023/05/11 09:30:52;;;;;;;6.43;2.70;;;16.30;76.60;;;;;;5070334;28;20479;-66
2023/05/11 09:33:26;;;;;;;7.90;3.37;;;16.40;76.60;;;;;;5071712;28;20466;-66
2023/05/11 09:35:58;;;;;;;6.77;2.80;;;16.40;76.60;;;;;;5066785;28;20478;-66
2023/05/11 09:38:35;;;;;;;5.33;2.33;;;16.40;76.60;;;;;;5067690;28;20460;-66
2023/05/11 09:41:10;;;;;;;6.40;2.80;;;16.50;76.60;;;;;;5068543;28;20479;-66
2023/05/11 09:43:42;;;;;;;5.97;2.60;;;16.50;76.70;;;;;;5071430;28;20943;-66
2023/05/11 09:46:26;;;;;;;7.33;2.80;;;16.50;76.70;;;;;;5068670;28;20559;-66
2023/05/11 09:49:03;;;;;;;5.80;2.60;;;16.50;76.50;;;;;;5070202;28;20445;-66
2023/05/11 09:51:39;;;;;;;6.60;3.10;;;16.50;76.50;;;;;;5061648;28;20581;-66
2023/05/11 09:54:27;;;;;;;6.97;3.07;;;16.50;76.70;;;;;;5085041;28;20472;-66
2023/05/11 09:57:07;;;;;;;5.80;2.53;;;16.50;76.70;;;;;;5070497;28;20477;-66
2023/05/11 09:59:40;;;;;;;5.30;2.90;;;16.50;76.70;;;;;;5069144;28;20477;-66
2023/05/11 10:02:22;;;;;;;6.30;3.30;;;16.50;76.70;;;;;;5068177;28;20484;-66
2023/05/11 10:05:04;;;;;;;5.97;3.13;;;16.60;76.70;;;;;;5068902;28;20544;-66
2023/05/11 10:07:38;;;;;;;4.70;2.40;;;16.60;76.70;;;;;;5068254;28;20456;-66
2023/05/11 10:10:17;;;;;;;5.13;2.70;;;16.60;76.70;;;;;;5070503;28;20456;-67
2023/05/11 10:12:52;;;;;;;6.83;3.20;;;16.60;76.70;;;;;;5068270;28;21174;-66
2023/05/11 10:15:29;;;;;;;7.73;3.30;;;16.60;76.70;;;;;;5068069;28;20960;-66
2023/05/11 10:17:59;;;;;;;5.90;2.77;;;16.60;76.90;;;;;;5065492;28;20462;-66
2023/05/11 10:20:29;;;;;;;8.90;3.40;;;16.60;76.90;;;;;;5069279;28;20940;-66
2023/05/11 10:23:07;;;;;;;6.60;3.33;;;16.70;76.90;;;;;;5069682;28;20551;-66
2023/05/11 10:25:53;;;;;;;6.83;3.10;;;16.70;76.90;;;;;;5068688;28;20799;-66
2023/05/11 10:28:30;;;;;;;6.60;3.20;;;16.70;76.90;;;;;;5067930;28;20469;-66
2023/05/11 10:31:13;;;;;;;7.63;3.77;;;16.70;76.90;;;;;;5068809;28;20494;-67
2023/05/11 10:33:47;;;;;;;6.00;3.07;;;16.70;76.80;;;;;;5065838;28;20798;-66
2023/05/11 10:36:20;;;;;;;6.27;3.40;;;16.80;76.80;;;;;;5067328;28;20889;-66
2023/05/11 10:39:01;;;;;;;6.53;3.13;;;16.80;76.80;;;;;;5067718;28;20464;-66
2023/05/11 10:41:51;;;;;;;6.07;3.77;;;16.80;76.90;;;;;;5087695;28;20515;-66
2023/05/11 10:44:50;;;;;;;5.47;3.30;;;16.80;76.80;;;;;;5069286;28;20452;-65
2023/05/11 10:48:22;;;;;;;8.00;3.30;;;16.90;76.90;;;;;;5069887;28;20464;-66
2023/05/11 10:51:18;;;;;;;7.70;3.80;;;16.90;76.80;;;;;;5071066;28;20448;-66
2023/05/11 10:54:06;;;;;;;5.40;3.03;;;16.90;77.00;;;;;;5066740;28;21309;-66
2023/05/11 10:57:05;;;;;;;5.83;2.67;;;16.90;77.10;;;;;;5060883;28;20560;-67
2023/05/11 11:00:13;;;;;;;8.00;3.77;;;16.90;77.10;;;;;;5070573;28;20556;-66
2023/05/11 11:02:45;;;;;;;5.53;3.30;;;16.90;77.10;;;;;;5065577;28;20761;-67
2023/05/11 11:05:34;;;;;;;9.23;3.67;;;16.90;77.10;;;;;;5066728;28;20479;-66
2023/05/11 11:08:13;;;;;;;7.10;3.63;;;16.90;77.10;;;;;;5066481;28;20465;-66
2023/05/11 11:10:45;;;;;;;6.00;3.70;;;16.90;77.20;;;;;;5068221;28;21301;-66
2023/05/11 11:14:04;;;;;;;7.30;3.67;;;16.90;77.30;;;;;;5071059;28;20472;-66
2023/05/11 11:16:37;;;;;;;8.60;3.50;;;17.00;77.40;;;;;;5062369;28;20903;-66
2023/05/11 11:19:45;;;;;;;5.40;3.27;;;17.00;77.40;;;;;;5066928;28;20561;-66
2023/05/11 11:22:47;;;;;;;6.53;2.93;;;17.00;77.40;;;;;;5069918;28;20472;-66
2023/05/11 11:25:57;;;;;;;6.70;3.47;;;17.10;77.40;;;;;;5069360;28;20464;-66
2023/05/11 11:29:02;;;;;;;8.00;3.63;;;17.10;77.30;;;;;;5066068;28;20933;-66
2023/05/11 11:31:50;;;;;;;5.00;3.00;;;17.10;77.30;;;;;;5066679;28;20837;-67
2023/05/11 11:34:39;;;;;;;7.70;3.27;;;17.10;77.40;;;;;;5072587;28;20472;-66
2023/05/11 11:37:12;;;;;;;6.43;2.80;;;17.10;77.30;;;;;;5060488;28;21033;-67
2023/05/11 11:39:59;;;;;;;8.00;3.50;;;17.20;77.20;;;;;;5073271;28;20442;-66
2023/05/11 11:42:46;;;;;;;8.83;3.40;;;17.20;77.20;;;;;;5069162;28;20450;-66
2023/05/11 11:45:36;;;;;;;5.70;2.97;;;17.20;77.20;;;;;;5066994;28;20503;-66
2023/05/11 11:48:25;;;;;;;8.90;3.53;;;17.20;77.10;;;;;;5071918;28;20460;-66
2023/05/11 11:51:21;;;;;;;8.07;3.43;;;17.20;77.10;;;;;;5068277;28;20460;-66
2023/05/11 11:54:11;;;;;;;10.20;3.23;;;17.20;77.20;;;;;;5067225;28;20991;-66
2023/05/11 11:56:44;;;;;;;7.87;3.07;;;17.20;77.20;;;;;;5067040;28;20481;-66
2023/05/11 11:59:23;;;;;;;5.07;2.87;;;17.20;77.10;;;;;;5068715;28;20481;-66
2023/05/11 12:01:56;;;;;;;7.23;3.27;;;17.20;77.00;;;;;;5062404;28;20477;-66
2023/05/11 12:04:46;;;;;;;8.50;2.17;;;17.20;76.90;;;;;;5068358;28;20473;-66
2023/05/11 12:07:24;;;;;;;4.90;2.27;;;17.20;76.60;;;;;;5068681;28;20485;-66
2023/05/11 12:09:55;;;;;;;5.03;2.20;;;17.20;76.80;;;;;;5068253;28;20449;-66
2023/05/11 12:12:36;;;;;;;4.33;2.20;;;17.10;76.70;;;;;;5063067;28;20494;-66
2023/05/11 12:15:22;;;;;;;6.20;2.50;;;17.10;76.70;;;;;;5068789;28;20484;-66
2023/05/11 12:17:53;;;;;;;4.53;2.63;;;17.10;76.70;;;;;;5065686;28;20517;-66
2023/05/11 12:20:32;;;;;;;5.60;2.47;;;17.10;76.70;;;;;;5065359;28;21005;-66
2023/05/11 12:23:04;;;;;;;5.50;2.93;;;17.20;76.70;;;;;;5067118;28;20551;-66
2023/05/11 12:25:50;;;;;;;11.23;2.77;;;17.20;76.80;;;;;;5061210;28;20560;-66
2023/05/11 12:28:21;;;;;;;6.33;3.03;;;17.20;76.70;;;;;;5066475;28;20528;-67
2023/05/11 12:30:58;;;;;;;5.60;2.70;;;17.20;76.60;;;;;;5061928;28;21023;-66
2023/05/11 12:33:34;;;;;;;5.33;2.73;;;17.10;76.50;;;;;;5068864;28;21007;-66
2023/05/11 12:38:55;;;;;;;11.00;3.07;;;17.00;76.60;;;;;;5069491;28;20791;-66
2023/05/11 12:41:24;;;;;;;6.47;3.13;;;16.90;76.70;;;;;;5065650;28;20465;-66
2023/05/11 12:44:01;;;;;;;6.60;3.87;;;17.00;76.80;;;;;;5069250;28;20937;-66
2023/05/11 12:46:41;;;;;;;10.17;3.90;;;17.00;76.90;;;;;;5067405;28;20462;-66
2023/05/11 12:49:22;;;;;;;5.80;3.60;;;17.10;77.00;;;;;;5063723;28;20470;-66
2023/05/11 12:52:14;;;;;;;6.97;3.67;;;17.10;77.00;;;;;;5065961;28;20476;-66
2023/05/11 12:54:50;;;;;;;7.53;3.20;;;17.20;77.00;;;;;;5067795;28;20910;-66
2023/05/11 12:57:32;;;;;;;7.27;3.30;;;17.10;76.90;;;;;;5066592;28;20495;-66
2023/05/11 13:00:11;;;;;;;5.07;2.90;;;17.10;76.80;;;;;;5067492;28;20461;-66
2023/05/11 13:02:50;;;;;;;5.17;2.90;;;17.00;76.80;;;;;;5068277;28;20527;-66
2023/05/11 13:05:31;;;;;;;5.33;2.60;;;17.00;76.90;;;;;;5071497;28;20460;-66
2023/05/11 13:08:05;;;;;;;3.97;1.80;;;17.00;76.90;;;;;;5070430;28;20495;-66
2023/05/11 13:10:40;;;;;;;4.60;1.67;;;17.00;76.90;;;;;;5067493;28;20503;-66
2023/05/11 13:13:10;;;;;;;4.67;1.70;;;17.00;76.50;;;;;;5063589;28;20844;-66
2023/05/11 13:15:54;;;;;;;3.77;1.23;;;17.00;76.20;;;;;;5068561;28;20534;-66
2023/05/11 13:18:29;;;;;;;4.47;1.80;;;17.00;76.10;;;;;;5065824;28;20485;-66
2023/05/11 13:21:11;;;;;;;4.40;1.90;;;16.90;75.90;;;;;;5069878;28;20477;-66
2023/05/11 13:23:53;;;;;;;5.53;2.47;;;16.90;75.80;;;;;;5063296;28;21301;-65
2023/05/11 13:26:29;;;;;;;4.90;2.43;;;16.80;75.80;;;;;;5071716;28;20552;-65
2023/05/11 13:29:09;;;;;;;4.10;2.10;;;16.90;76.00;;;;;;5067144;28;20463;-65
2023/05/11 13:31:47;;;;;;;5.30;2.90;;;16.80;75.90;;;;;;5069872;28;20503;-65
2023/05/11 13:34:20;;;;;;;4.23;2.10;;;16.80;75.90;;;;;;5065135;28;20462;-65
2023/05/11 13:36:56;;;;;;;8.40;2.90;;;16.80;76.00;;;;;;5070866;28;20460;-65
2023/05/11 13:39:44;;;;;;;4.90;3.27;;;16.80;76.00;;;;;;5068602;28;20556;-65
2023/05/11 13:42:24;;;;;;;6.20;3.00;;;16.80;76.10;;;;;;5067879;28;20926;-65
2023/05/11 13:44:57;;;;;;;5.20;2.30;;;16.80;76.20;;;;;;5069749;28;20545;-65
2023/05/11 13:47:33;;;;;;;5.33;2.47;;;16.80;76.20;;;;;;5071682;28;20466;-65
2023/05/11 13:50:20;;;;;;;4.60;2.73;;;16.80;76.20;;;;;;5071353;28;20449;-65
2023/05/11 13:52:54;;;;;;;8.93;3.27;;;16.80;76.30;;;;;;5068994;28;20456;-65
2023/05/11 13:55:32;;;;;;;5.30;3.20;;;16.80;76.30;;;;;;5066240;28;20549;-65
2023/05/11 13:58:06;;;;;;;5.40;2.90;;;16.80;76.40;;;;;;5073268;28;20538;-65
2023/05/11 14:00:35;;;;;;;5.90;3.60;;;16.80;76.50;;;;;;5072351;28;20577;-65
2023/05/11 14:03:04;;;;;;;6.40;3.47;;;16.90;76.50;;;;;;5074169;28;20485;-66